sensor_id;sensor_type;location;lat;lon;timestamp;temperature;humidity
19025;DHT22;9645;51.448;6.260;2023-04-06T00:00:39;3.70;99.90
19025;DHT22;9645;51.448;6.260;2023-04-06T00:03:06;3.70;99.90
19025;DHT22;9645;51.448;6.260;2023-04-06T00:05:33;3.70;99.90
19025;DHT22;9645;51.448;6.260;2023-04-06T00:08:00;3.70;99.90
19025;DHT22;9645;51.448;6.260;2023-04-06T00:10:27;3.70;99.90
19025;DHT22;9645;51.448;6.260;2023-04-06T00:12:55;3.60;99.90
19025;DHT22;9645;51.448;6.260;2023-04-06T00:15:22;3.60;99.90
19025;DHT22;9645;51.448;6.260;2023-04-06T00:17:51;3.50;99.90
19025;DHT22;9645;51.448;6.260;2023-04-06T00:20:18;3.50;99.90
19025;DHT22;9645;51.448;6.260;2023-04-06T00:22:45;3.50;99.90
19025;DHT22;9645;51.448;6.260;2023-04-06T00:25:12;3.50;99.90
19025;DHT22;9645;51.448;6.260;2023-04-06T00:27:41;3.50;99.90
19025;DHT22;9645;51.448;6.260;2023-04-06T00:30:08;3.50;99.90
19025;DHT22;9645;51.448;6.260;2023-04-06T00:32:36;3.50;99.90
19025;DHT22;9645;51.448;6.260;2023-04-06T00:35:05;3.50;99.90
19025;DHT22;9645;51.448;6.260;2023-04-06T00:37:32;3.60;99.90
19025;DHT22;9645;51.448;6.260;2023-04-06T00:40:00;3.50;99.90
19025;DHT22;9645;51.448;6.260;2023-04-06T00:42:28;3.50;99.90
19025;DHT22;9645;51.448;6.260;2023-04-06T00:44:56;3.50;99.90
19025;DHT22;9645;51.448;6.260;2023-04-06T00:47:23;3.50;99.90
19025;DHT22;9645;51.448;6.260;2023-04-06T00:49:52;3.40;99.90
19025;DHT22;9645;51.448;6.260;2023-04-06T00:52:21;3.40;99.90
19025;DHT22;9645;51.448;6.260;2023-04-06T00:54:48;3.40;99.90
19025;DHT22;9645;51.448;6.260;2023-04-06T00:57:16;3.30;99.90
19025;DHT22;9645;51.448;6.260;2023-04-06T00:59:43;3.30;99.90
19025;DHT22;9645;51.448;6.260;2023-04-06T01:02:11;3.20;99.90
19025;DHT22;9645;51.448;6.260;2023-04-06T01:04:38;3.20;99.90
19025;DHT22;9645;51.448;6.260;2023-04-06T01:07:05;3.20;99.90
19025;DHT22;9645;51.448;6.260;2023-04-06T01:09:33;3.20;99.90
19025;DHT22;9645;51.448;6.260;2023-04-06T01:12:00;3.20;99.90
19025;DHT22;9645;51.448;6.260;2023-04-06T01:14:28;3.20;99.90
19025;DHT22;9645;51.448;6.260;2023-04-06T01:16:58;3.20;99.90
19025;DHT22;9645;51.448;6.260;2023-04-06T01:19:25;3.10;99.90
19025;DHT22;9645;51.448;6.260;2023-04-06T01:21:53;3.00;99.90
19025;DHT22;9645;51.448;6.260;2023-04-06T01:26:49;3.00;99.90
19025;DHT22;9645;51.448;6.260;2023-04-06T01:29:16;2.80;99.90
19025;DHT22;9645;51.448;6.260;2023-04-06T01:31:43;2.80;99.90
19025;DHT22;9645;51.448;6.260;2023-04-06T01:34:10;2.70;99.90
19025;DHT22;9645;51.448;6.260;2023-04-06T01:36:37;2.70;99.90
19025;DHT22;9645;51.448;6.260;2023-04-06T01:39:04;2.60;99.90
19025;DHT22;9645;51.448;6.260;2023-04-06T01:41:33;2.60;99.90
19025;DHT22;9645;51.448;6.260;2023-04-06T01:44:00;2.60;99.90
19025;DHT22;9645;51.448;6.260;2023-04-06T01:46:27;2.60;99.90
19025;DHT22;9645;51.448;6.260;2023-04-06T01:48:54;2.60;99.90
19025;DHT22;9645;51.448;6.260;2023-04-06T01:51:21;2.50;99.90
19025;DHT22;9645;51.448;6.260;2023-04-06T01:53:50;2.40;99.90
19025;DHT22;9645;51.448;6.260;2023-04-06T01:56:17;2.40;99.90
19025;DHT22;9645;51.448;6.260;2023-04-06T01:58:45;2.30;99.90
19025;DHT22;9645;51.448;6.260;2023-04-06T02:01:12;2.30;99.90
19025;DHT22;9645;51.448;6.260;2023-04-06T02:03:39;2.20;99.90
19025;DHT22;9645;51.448;6.260;2023-04-06T02:06:06;2.20;99.90
19025;DHT22;9645;51.448;6.260;2023-04-06T02:08:33;2.20;99.90
19025;DHT22;9645;51.448;6.260;2023-04-06T02:11:01;2.10;99.90
19025;DHT22;9645;51.448;6.260;2023-04-06T02:13:28;2.10;99.90
19025;DHT22;9645;51.448;6.260;2023-04-06T02:15:56;2.00;99.90
19025;DHT22;9645;51.448;6.260;2023-04-06T02:18:24;2.00;99.90
19025;DHT22;9645;51.448;6.260;2023-04-06T02:20:51;2.00;99.90
19025;DHT22;9645;51.448;6.260;2023-04-06T02:23:18;1.90;99.90
19025;DHT22;9645;51.448;6.260;2023-04-06T02:25:45;1.90;99.90
19025;DHT22;9645;51.448;6.260;2023-04-06T02:28:12;1.80;99.90
19025;DHT22;9645;51.448;6.260;2023-04-06T02:30:39;1.80;99.90
19025;DHT22;9645;51.448;6.260;2023-04-06T02:33:08;1.70;99.90
19025;DHT22;9645;51.448;6.260;2023-04-06T02:35:35;1.70;99.90
19025;DHT22;9645;51.448;6.260;2023-04-06T02:38:02;1.70;99.90
19025;DHT22;9645;51.448;6.260;2023-04-06T02:40:29;1.60;99.90
19025;DHT22;9645;51.448;6.260;2023-04-06T02:42:56;1.60;99.90
19025;DHT22;9645;51.448;6.260;2023-04-06T02:45:23;1.60;99.90
19025;DHT22;9645;51.448;6.260;2023-04-06T02:47:50;1.60;99.90
19025;DHT22;9645;51.448;6.260;2023-04-06T02:50:18;1.50;99.90
19025;DHT22;9645;51.448;6.260;2023-04-06T02:52:45;1.50;99.90
19025;DHT22;9645;51.448;6.260;2023-04-06T02:55:12;1.50;99.90
19025;DHT22;9645;51.448;6.260;2023-04-06T02:57:39;1.40;99.90
19025;DHT22;9645;51.448;6.260;2023-04-06T03:00:07;1.40;99.90
19025;DHT22;9645;51.448;6.260;2023-04-06T03:02:35;1.30;99.90
19025;DHT22;9645;51.448;6.260;2023-04-06T03:05:02;1.30;99.90
19025;DHT22;9645;51.448;6.260;2023-04-06T03:07:31;1.30;99.90
19025;DHT22;9645;51.448;6.260;2023-04-06T03:09:58;1.70;99.90
19025;DHT22;9645;51.448;6.260;2023-04-06T03:12:25;1.20;99.90
19025;DHT22;9645;51.448;6.260;2023-04-06T03:14:52;1.20;99.90
19025;DHT22;9645;51.448;6.260;2023-04-06T03:17:19;1.20;99.90
19025;DHT22;9645;51.448;6.260;2023-04-06T03:19:46;1.20;99.90
19025;DHT22;9645;51.448;6.260;2023-04-06T03:22:13;1.20;99.90
19025;DHT22;9645;51.448;6.260;2023-04-06T03:24:42;1.30;99.90
19025;DHT22;9645;51.448;6.260;2023-04-06T03:27:09;1.30;99.90
19025;DHT22;9645;51.448;6.260;2023-04-06T03:29:36;1.30;99.90
19025;DHT22;9645;51.448;6.260;2023-04-06T03:32:03;1.40;99.90
19025;DHT22;9645;51.448;6.260;2023-04-06T03:34:30;1.50;99.90
19025;DHT22;9645;51.448;6.260;2023-04-06T03:36:57;1.60;99.90
19025;DHT22;9645;51.448;6.260;2023-04-06T03:39:24;1.70;99.90
19025;DHT22;9645;51.448;6.260;2023-04-06T03:41:53;1.80;99.90
19025;DHT22;9645;51.448;6.260;2023-04-06T03:44:20;1.80;99.90
19025;DHT22;9645;51.448;6.260;2023-04-06T03:46:47;1.90;99.90
19025;DHT22;9645;51.448;6.260;2023-04-06T03:49:14;1.90;99.90
19025;DHT22;9645;51.448;6.260;2023-04-06T03:51:41;1.90;99.90
19025;DHT22;9645;51.448;6.260;2023-04-06T03:54:08;2.00;99.90
19025;DHT22;9645;51.448;6.260;2023-04-06T03:56:35;1.30;99.90
19025;DHT22;9645;51.448;6.260;2023-04-06T03:59:04;2.10;99.90
19025;DHT22;9645;51.448;6.260;2023-04-06T04:01:31;2.10;99.90
19025;DHT22;9645;51.448;6.260;2023-04-06T04:03:58;2.20;99.90
19025;DHT22;9645;51.448;6.260;2023-04-06T04:06:25;2.20;99.90
19025;DHT22;9645;51.448;6.260;2023-04-06T04:08:52;2.20;99.90
19025;DHT22;9645;51.448;6.260;2023-04-06T04:11:19;2.20;99.90
19025;DHT22;9645;51.448;6.260;2023-04-06T04:13:46;2.20;99.90
19025;DHT22;9645;51.448;6.260;2023-04-06T04:16:14;2.10;99.90
19025;DHT22;9645;51.448;6.260;2023-04-06T04:18:41;2.10;99.90
19025;DHT22;9645;51.448;6.260;2023-04-06T04:21:09;2.10;99.90
19025;DHT22;9645;51.448;6.260;2023-04-06T04:23:36;2.10;99.90
19025;DHT22;9645;51.448;6.260;2023-04-06T04:26:03;2.10;99.90
19025;DHT22;9645;51.448;6.260;2023-04-06T04:28:30;2.10;99.90
19025;DHT22;9645;51.448;6.260;2023-04-06T04:30:57;2.10;99.90
19025;DHT22;9645;51.448;6.260;2023-04-06T04:33:25;2.10;99.90
19025;DHT22;9645;51.448;6.260;2023-04-06T04:35:52;2.10;99.90
19025;DHT22;9645;51.448;6.260;2023-04-06T04:38:21;2.10;99.90
19025;DHT22;9645;51.448;6.260;2023-04-06T04:40:48;2.10;99.90
19025;DHT22;9645;51.448;6.260;2023-04-06T04:43:15;2.10;99.90
19025;DHT22;9645;51.448;6.260;2023-04-06T04:45:42;2.10;99.90
19025;DHT22;9645;51.448;6.260;2023-04-06T04:48:09;2.00;99.90
19025;DHT22;9645;51.448;6.260;2023-04-06T04:50:37;2.00;99.90
19025;DHT22;9645;51.448;6.260;2023-04-06T04:53:04;2.00;99.90
19025;DHT22;9645;51.448;6.260;2023-04-06T04:55:31;2.10;99.90
19025;DHT22;9645;51.448;6.260;2023-04-06T04:57:59;2.20;99.90
19025;DHT22;9645;51.448;6.260;2023-04-06T05:00:26;2.20;99.90
19025;DHT22;9645;51.448;6.260;2023-04-06T05:02:53;2.20;99.90
19025;DHT22;9645;51.448;6.260;2023-04-06T05:05:20;2.30;99.90
19025;DHT22;9645;51.448;6.260;2023-04-06T05:07:48;2.30;99.90
19025;DHT22;9645;51.448;6.260;2023-04-06T05:10:15;2.40;99.90
19025;DHT22;9645;51.448;6.260;2023-04-06T05:12:43;2.50;99.90
19025;DHT22;9645;51.448;6.260;2023-04-06T05:15:10;2.50;99.90
19025;DHT22;9645;51.448;6.260;2023-04-06T05:17:37;2.50;99.90
19025;DHT22;9645;51.448;6.260;2023-04-06T05:20:05;2.60;99.90
19025;DHT22;9645;51.448;6.260;2023-04-06T05:22:32;2.60;99.90
19025;DHT22;9645;51.448;6.260;2023-04-06T05:25:01;2.60;99.90
19025;DHT22;9645;51.448;6.260;2023-04-06T05:27:28;2.70;99.90
19025;DHT22;9645;51.448;6.260;2023-04-06T05:29:55;2.70;99.90
19025;DHT22;9645;51.448;6.260;2023-04-06T05:32:22;2.80;99.90
19025;DHT22;9645;51.448;6.260;2023-04-06T05:34:50;2.80;99.90
19025;DHT22;9645;51.448;6.260;2023-04-06T05:37:17;2.90;99.90
19025;DHT22;9645;51.448;6.260;2023-04-06T05:39:44;3.00;99.90
19025;DHT22;9645;51.448;6.260;2023-04-06T05:42:13;3.10;99.90
19025;DHT22;9645;51.448;6.260;2023-04-06T05:44:40;3.20;99.90
19025;DHT22;9645;51.448;6.260;2023-04-06T05:47:07;1.70;99.90
19025;DHT22;9645;51.448;6.260;2023-04-06T05:49:35;3.40;99.90
19025;DHT22;9645;51.448;6.260;2023-04-06T05:52:02;3.50;99.90
19025;DHT22;9645;51.448;6.260;2023-04-06T05:54:29;3.60;99.90
19025;DHT22;9645;51.448;6.260;2023-04-06T05:56:56;3.60;99.90
19025;DHT22;9645;51.448;6.260;2023-04-06T05:59:25;3.70;99.90
19025;DHT22;9645;51.448;6.260;2023-04-06T06:01:52;3.80;99.90
19025;DHT22;9645;51.448;6.260;2023-04-06T06:04:19;4.80;99.90
19025;DHT22;9645;51.448;6.260;2023-04-06T06:06:46;5.70;99.90
19025;DHT22;9645;51.448;6.260;2023-04-06T06:09:13;6.00;99.90
19025;DHT22;9645;51.448;6.260;2023-04-06T06:11:40;5.80;99.90
19025;DHT22;9645;51.448;6.260;2023-04-06T06:14:07;5.60;99.90
19025;DHT22;9645;51.448;6.260;2023-04-06T06:16:36;5.50;99.90
19025;DHT22;9645;51.448;6.260;2023-04-06T06:19:03;5.60;99.90
19025;DHT22;9645;51.448;6.260;2023-04-06T06:21:30;5.70;99.90
19025;DHT22;9645;51.448;6.260;2023-04-06T06:23:57;5.80;99.90
19025;DHT22;9645;51.448;6.260;2023-04-06T06:26:24;5.80;99.90
19025;DHT22;9645;51.448;6.260;2023-04-06T06:28:51;5.70;99.90
19025;DHT22;9645;51.448;6.260;2023-04-06T06:31:18;5.70;99.90
19025;DHT22;9645;51.448;6.260;2023-04-06T06:33:49;5.70;99.90
19025;DHT22;9645;51.448;6.260;2023-04-06T06:36:17;5.70;99.90
19025;DHT22;9645;51.448;6.260;2023-04-06T06:38:44;5.70;99.90
19025;DHT22;9645;51.448;6.260;2023-04-06T06:41:11;5.70;99.90
19025;DHT22;9645;51.448;6.260;2023-04-06T06:43:38;5.80;99.90
19025;DHT22;9645;51.448;6.260;2023-04-06T06:46:06;5.80;99.90
19025;DHT22;9645;51.448;6.260;2023-04-06T06:48:33;6.00;99.90
19025;DHT22;9645;51.448;6.260;2023-04-06T06:51:01;6.10;99.90
19025;DHT22;9645;51.448;6.260;2023-04-06T06:53:29;6.20;99.90
19025;DHT22;9645;51.448;6.260;2023-04-06T06:55:56;6.20;99.90
19025;DHT22;9645;51.448;6.260;2023-04-06T06:58:23;6.30;99.90
19025;DHT22;9645;51.448;6.260;2023-04-06T07:00:50;6.40;99.90
19025;DHT22;9645;51.448;6.260;2023-04-06T07:03:17;6.30;99.90
19025;DHT22;9645;51.448;6.260;2023-04-06T07:05:47;6.40;99.90
19025;DHT22;9645;51.448;6.260;2023-04-06T07:08:20;6.60;99.90
19025;DHT22;9645;51.448;6.260;2023-04-06T07:10:47;6.70;99.90
19025;DHT22;9645;51.448;6.260;2023-04-06T07:13:14;6.80;99.90
19025;DHT22;9645;51.448;6.260;2023-04-06T07:15:46;7.00;99.90
19025;DHT22;9645;51.448;6.260;2023-04-06T07:18:13;7.80;99.90
19025;DHT22;9645;51.448;6.260;2023-04-06T07:20:40;8.20;99.90
19025;DHT22;9645;51.448;6.260;2023-04-06T07:23:07;8.30;99.90
19025;DHT22;9645;51.448;6.260;2023-04-06T07:25:36;8.10;99.90
19025;DHT22;9645;51.448;6.260;2023-04-06T07:28:03;8.00;99.90
19025;DHT22;9645;51.448;6.260;2023-04-06T07:30:30;8.20;99.90
19025;DHT22;9645;51.448;6.260;2023-04-06T07:32:57;8.40;99.90
19025;DHT22;9645;51.448;6.260;2023-04-06T07:35:26;8.20;99.90
19025;DHT22;9645;51.448;6.260;2023-04-06T07:37:53;8.10;99.90
19025;DHT22;9645;51.448;6.260;2023-04-06T07:40:20;8.10;99.90
19025;DHT22;9645;51.448;6.260;2023-04-06T07:42:49;8.10;99.90
19025;DHT22;9645;51.448;6.260;2023-04-06T07:45:16;8.30;99.90
19025;DHT22;9645;51.448;6.260;2023-04-06T07:47:43;8.40;99.90
19025;DHT22;9645;51.448;6.260;2023-04-06T07:50:11;8.70;99.90
19025;DHT22;9645;51.448;6.260;2023-04-06T07:52:38;8.80;99.90
19025;DHT22;9645;51.448;6.260;2023-04-06T07:55:06;8.90;99.90
19025;DHT22;9645;51.448;6.260;2023-04-06T07:57:33;9.40;99.90
19025;DHT22;9645;51.448;6.260;2023-04-06T08:00:02;10.00;99.90
19025;DHT22;9645;51.448;6.260;2023-04-06T08:02:30;10.60;99.90
19025;DHT22;9645;51.448;6.260;2023-04-06T08:04:57;11.10;99.90
19025;DHT22;9645;51.448;6.260;2023-04-06T08:07:24;11.40;99.90
19025;DHT22;9645;51.448;6.260;2023-04-06T08:09:52;11.40;99.90
19025;DHT22;9645;51.448;6.260;2023-04-06T08:12:19;11.70;99.90
19025;DHT22;9645;51.448;6.260;2023-04-06T08:14:46;11.60;99.90
19025;DHT22;9645;51.448;6.260;2023-04-06T08:17:14;11.30;99.90
19025;DHT22;9645;51.448;6.260;2023-04-06T08:19:42;10.40;99.90
19025;DHT22;9645;51.448;6.260;2023-04-06T08:22:09;11.00;99.90
19025;DHT22;9645;51.448;6.260;2023-04-06T08:24:36;10.80;99.90
19025;DHT22;9645;51.448;6.260;2023-04-06T08:27:03;10.70;99.90
19025;DHT22;9645;51.448;6.260;2023-04-06T08:29:31;10.60;99.90
19025;DHT22;9645;51.448;6.260;2023-04-06T08:31:58;10.60;99.90
19025;DHT22;9645;51.448;6.260;2023-04-06T08:34:26;10.70;99.90
19025;DHT22;9645;51.448;6.260;2023-04-06T08:36:53;10.60;99.90
19025;DHT22;9645;51.448;6.260;2023-04-06T08:39:20;11.90;99.90
19025;DHT22;9645;51.448;6.260;2023-04-06T08:41:51;10.50;99.90
19025;DHT22;9645;51.448;6.260;2023-04-06T08:44:19;10.50;99.90
19025;DHT22;9645;51.448;6.260;2023-04-06T08:46:46;10.60;99.90
19025;DHT22;9645;51.448;6.260;2023-04-06T08:49:14;10.70;99.90
19025;DHT22;9645;51.448;6.260;2023-04-06T08:51:44;11.00;99.90
19025;DHT22;9645;51.448;6.260;2023-04-06T08:54:11;11.30;99.90
19025;DHT22;9645;51.448;6.260;2023-04-06T08:56:39;11.50;99.90
19025;DHT22;9645;51.448;6.260;2023-04-06T08:59:06;12.00;99.90
19025;DHT22;9645;51.448;6.260;2023-04-06T09:01:39;12.20;99.90
19025;DHT22;9645;51.448;6.260;2023-04-06T09:04:07;12.60;99.90
19025;DHT22;9645;51.448;6.260;2023-04-06T09:06:36;12.70;99.90
19025;DHT22;9645;51.448;6.260;2023-04-06T09:09:05;12.80;99.90
19025;DHT22;9645;51.448;6.260;2023-04-06T09:11:43;13.40;99.90
19025;DHT22;9645;51.448;6.260;2023-04-06T09:14:10;13.70;99.90
19025;DHT22;9645;51.448;6.260;2023-04-06T09:16:42;13.80;99.90
19025;DHT22;9645;51.448;6.260;2023-04-06T09:19:10;13.70;99.90
19025;DHT22;9645;51.448;6.260;2023-04-06T09:21:38;13.90;99.90
19025;DHT22;9645;51.448;6.260;2023-04-06T09:24:07;14.70;99.90
19025;DHT22;9645;51.448;6.260;2023-04-06T09:26:44;15.70;99.90
19025;DHT22;9645;51.448;6.260;2023-04-06T09:29:22;17.30;99.90
19025;DHT22;9645;51.448;6.260;2023-04-06T09:31:49;18.30;99.90
19025;DHT22;9645;51.448;6.260;2023-04-06T09:34:21;18.30;99.90
19025;DHT22;9645;51.448;6.260;2023-04-06T09:36:49;18.70;99.90
19025;DHT22;9645;51.448;6.260;2023-04-06T09:39:20;18.50;99.90
19025;DHT22;9645;51.448;6.260;2023-04-06T09:41:50;18.10;99.90
19025;DHT22;9645;51.448;6.260;2023-04-06T09:44:18;18.10;99.90
19025;DHT22;9645;51.448;6.260;2023-04-06T09:46:46;18.30;99.90
19025;DHT22;9645;51.448;6.260;2023-04-06T09:49:13;18.90;99.90
19025;DHT22;9645;51.448;6.260;2023-04-06T09:51:44;18.70;99.90
19025;DHT22;9645;51.448;6.260;2023-04-06T09:54:15;18.50;99.90
19025;DHT22;9645;51.448;6.260;2023-04-06T09:56:46;17.40;99.90
19025;DHT22;9645;51.448;6.260;2023-04-06T09:59:25;16.80;99.90
19025;DHT22;9645;51.448;6.260;2023-04-06T10:01:56;16.30;99.90
19025;DHT22;9645;51.448;6.260;2023-04-06T10:04:31;15.90;99.90
19025;DHT22;9645;51.448;6.260;2023-04-06T10:07:03;15.60;99.90
19025;DHT22;9645;51.448;6.260;2023-04-06T10:09:32;15.30;99.90
19025;DHT22;9645;51.448;6.260;2023-04-06T10:12:04;14.90;99.90
19025;DHT22;9645;51.448;6.260;2023-04-06T10:14:33;14.90;99.90
19025;DHT22;9645;51.448;6.260;2023-04-06T10:17:02;14.90;99.90
19025;DHT22;9645;51.448;6.260;2023-04-06T10:19:36;14.90;99.90
19025;DHT22;9645;51.448;6.260;2023-04-06T10:22:08;15.10;99.90
19025;DHT22;9645;51.448;6.260;2023-04-06T10:24:35;14.80;99.90
19025;DHT22;9645;51.448;6.260;2023-04-06T10:27:06;14.80;99.90
19025;DHT22;9645;51.448;6.260;2023-04-06T10:29:44;14.90;99.90
19025;DHT22;9645;51.448;6.260;2023-04-06T10:32:12;14.70;99.90
19025;DHT22;9645;51.448;6.260;2023-04-06T10:34:39;14.90;99.90
19025;DHT22;9645;51.448;6.260;2023-04-06T10:37:16;15.10;99.90
19025;DHT22;9645;51.448;6.260;2023-04-06T10:39:49;15.00;99.90
19025;DHT22;9645;51.448;6.260;2023-04-06T10:42:24;14.80;99.90
19025;DHT22;9645;51.448;6.260;2023-04-06T10:44:51;14.70;99.90
19025;DHT22;9645;51.448;6.260;2023-04-06T10:47:18;14.40;99.90
19025;DHT22;9645;51.448;6.260;2023-04-06T10:49:45;14.00;99.90
19025;DHT22;9645;51.448;6.260;2023-04-06T10:52:12;14.10;99.90
19025;DHT22;9645;51.448;6.260;2023-04-06T10:54:42;14.00;99.90
19025;DHT22;9645;51.448;6.260;2023-04-06T10:57:10;14.10;99.90
19025;DHT22;9645;51.448;6.260;2023-04-06T10:59:42;14.20;99.90
19025;DHT22;9645;51.448;6.260;2023-04-06T11:02:09;14.50;99.90
19025;DHT22;9645;51.448;6.260;2023-04-06T11:04:54;14.70;99.90
19025;DHT22;9645;51.448;6.260;2023-04-06T11:07:23;14.80;99.90
19025;DHT22;9645;51.448;6.260;2023-04-06T11:09:51;14.70;99.90
19025;DHT22;9645;51.448;6.260;2023-04-06T11:12:22;14.60;99.90
19025;DHT22;9645;51.448;6.260;2023-04-06T11:14:56;14.80;99.90
19025;DHT22;9645;51.448;6.260;2023-04-06T11:17:30;15.20;99.90
19025;DHT22;9645;51.448;6.260;2023-04-06T11:19:58;15.70;99.90
19025;DHT22;9645;51.448;6.260;2023-04-06T11:22:25;16.20;99.90
19025;DHT22;9645;51.448;6.260;2023-04-06T11:24:52;16.40;99.90
19025;DHT22;9645;51.448;6.260;2023-04-06T11:27:20;15.60;99.90
19025;DHT22;9645;51.448;6.260;2023-04-06T11:29:47;15.30;99.90
19025;DHT22;9645;51.448;6.260;2023-04-06T11:32:21;15.20;99.90
19025;DHT22;9645;51.448;6.260;2023-04-06T11:34:50;14.80;99.90
19025;DHT22;9645;51.448;6.260;2023-04-06T11:37:17;14.30;99.90
19025;DHT22;9645;51.448;6.260;2023-04-06T11:39:48;13.90;99.90
19025;DHT22;9645;51.448;6.260;2023-04-06T11:42:22;13.70;99.90
19025;DHT22;9645;51.448;6.260;2023-04-06T11:44:50;13.80;99.90
19025;DHT22;9645;51.448;6.260;2023-04-06T11:47:18;13.80;99.90
19025;DHT22;9645;51.448;6.260;2023-04-06T11:49:47;13.80;99.90
19025;DHT22;9645;51.448;6.260;2023-04-06T11:52:16;13.70;99.90
19025;DHT22;9645;51.448;6.260;2023-04-06T11:54:43;13.40;99.90
19025;DHT22;9645;51.448;6.260;2023-04-06T11:57:10;13.40;99.90
19025;DHT22;9645;51.448;6.260;2023-04-06T11:59:37;13.50;99.90
19025;DHT22;9645;51.448;6.260;2023-04-06T12:02:05;13.10;99.90
19025;DHT22;9645;51.448;6.260;2023-04-06T12:04:32;13.00;99.90
19025;DHT22;9645;51.448;6.260;2023-04-06T12:07:00;12.90;99.90
19025;DHT22;9645;51.448;6.260;2023-04-06T12:09:27;12.80;99.90
19025;DHT22;9645;51.448;6.260;2023-04-06T12:11:54;12.70;99.90
19025;DHT22;9645;51.448;6.260;2023-04-06T12:14:22;12.50;99.90
19025;DHT22;9645;51.448;6.260;2023-04-06T12:16:49;12.50;99.90
19025;DHT22;9645;51.448;6.260;2023-04-06T12:19:17;12.50;99.90
19025;DHT22;9645;51.448;6.260;2023-04-06T12:21:44;12.50;99.90
19025;DHT22;9645;51.448;6.260;2023-04-06T12:24:12;12.30;99.90
19025;DHT22;9645;51.448;6.260;2023-04-06T12:26:39;12.10;99.90
19025;DHT22;9645;51.448;6.260;2023-04-06T12:29:07;11.80;99.90
19025;DHT22;9645;51.448;6.260;2023-04-06T12:31:35;11.70;99.90
19025;DHT22;9645;51.448;6.260;2023-04-06T12:34:04;11.60;99.90
19025;DHT22;9645;51.448;6.260;2023-04-06T12:36:31;11.30;99.90
19025;DHT22;9645;51.448;6.260;2023-04-06T12:38:59;11.30;99.90
19025;DHT22;9645;51.448;6.260;2023-04-06T12:41:28;11.10;99.90
19025;DHT22;9645;51.448;6.260;2023-04-06T12:43:55;10.90;99.90
19025;DHT22;9645;51.448;6.260;2023-04-06T12:46:23;10.60;99.90
19025;DHT22;9645;51.448;6.260;2023-04-06T12:48:51;10.40;99.90
19025;DHT22;9645;51.448;6.260;2023-04-06T12:51:20;10.20;99.90
19025;DHT22;9645;51.448;6.260;2023-04-06T12:53:48;10.10;99.90
19025;DHT22;9645;51.448;6.260;2023-04-06T12:56:17;10.30;99.90
19025;DHT22;9645;51.448;6.260;2023-04-06T12:58:45;10.00;99.90
19025;DHT22;9645;51.448;6.260;2023-04-06T13:01:13;9.90;99.90
19025;DHT22;9645;51.448;6.260;2023-04-06T13:03:40;9.90;99.90
19025;DHT22;9645;51.448;6.260;2023-04-06T13:06:08;9.80;99.90
19025;DHT22;9645;51.448;6.260;2023-04-06T13:08:35;9.90;99.90
19025;DHT22;9645;51.448;6.260;2023-04-06T13:11:04;9.90;99.90
19025;DHT22;9645;51.448;6.260;2023-04-06T13:13:33;9.90;99.90
19025;DHT22;9645;51.448;6.260;2023-04-06T13:16:03;9.80;99.90
19025;DHT22;9645;51.448;6.260;2023-04-06T13:18:31;9.90;99.90
19025;DHT22;9645;51.448;6.260;2023-04-06T13:20:59;10.00;99.90
19025;DHT22;9645;51.448;6.260;2023-04-06T13:23:26;10.10;99.90
19025;DHT22;9645;51.448;6.260;2023-04-06T13:25:58;9.80;99.90
19025;DHT22;9645;51.448;6.260;2023-04-06T13:28:26;9.80;99.90
19025;DHT22;9645;51.448;6.260;2023-04-06T13:30:54;9.70;99.90
19025;DHT22;9645;51.448;6.260;2023-04-06T13:33:22;9.60;99.90
19025;DHT22;9645;51.448;6.260;2023-04-06T13:35:49;9.50;99.90
19025;DHT22;9645;51.448;6.260;2023-04-06T13:38:17;9.50;99.90
19025;DHT22;9645;51.448;6.260;2023-04-06T13:40:44;9.50;99.90
19025;DHT22;9645;51.448;6.260;2023-04-06T13:43:11;9.50;99.90
19025;DHT22;9645;51.448;6.260;2023-04-06T13:45:38;9.50;99.90
19025;DHT22;9645;51.448;6.260;2023-04-06T13:48:05;9.50;99.90
19025;DHT22;9645;51.448;6.260;2023-04-06T13:50:34;9.50;99.90
19025;DHT22;9645;51.448;6.260;2023-04-06T13:53:01;9.40;99.90
19025;DHT22;9645;51.448;6.260;2023-04-06T13:55:28;9.40;99.90
19025;DHT22;9645;51.448;6.260;2023-04-06T13:57:56;9.50;99.90
19025;DHT22;9645;51.448;6.260;2023-04-06T14:00:24;9.50;99.90
19025;DHT22;9645;51.448;6.260;2023-04-06T14:02:53;9.50;99.90
19025;DHT22;9645;51.448;6.260;2023-04-06T14:05:20;9.60;99.90
19025;DHT22;9645;51.448;6.260;2023-04-06T14:07:48;9.60;99.90
19025;DHT22;9645;51.448;6.260;2023-04-06T14:10:16;9.60;99.90
19025;DHT22;9645;51.448;6.260;2023-04-06T14:12:43;9.70;99.90
19025;DHT22;9645;51.448;6.260;2023-04-06T14:15:11;9.80;99.90
19025;DHT22;9645;51.448;6.260;2023-04-06T14:17:38;9.90;99.90
19025;DHT22;9645;51.448;6.260;2023-04-06T14:20:06;9.80;99.90
19025;DHT22;9645;51.448;6.260;2023-04-06T14:22:39;9.80;99.90
19025;DHT22;9645;51.448;6.260;2023-04-06T14:25:08;9.70;99.90
19025;DHT22;9645;51.448;6.260;2023-04-06T14:27:36;9.50;99.90
19025;DHT22;9645;51.448;6.260;2023-04-06T14:30:04;9.40;99.90
19025;DHT22;9645;51.448;6.260;2023-04-06T14:32:31;9.40;99.90
19025;DHT22;9645;51.448;6.260;2023-04-06T14:34:58;9.40;99.90
19025;DHT22;9645;51.448;6.260;2023-04-06T14:37:25;9.40;99.90
19025;DHT22;9645;51.448;6.260;2023-04-06T14:39:52;9.40;99.90
19025;DHT22;9645;51.448;6.260;2023-04-06T14:42:20;10.50;99.90
19025;DHT22;9645;51.448;6.260;2023-04-06T14:44:47;9.50;99.90
19025;DHT22;9645;51.448;6.260;2023-04-06T14:47:14;9.50;99.90
19025;DHT22;9645;51.448;6.260;2023-04-06T14:49:46;9.60;99.90
19025;DHT22;9645;51.448;6.260;2023-04-06T14:52:13;9.60;99.90
19025;DHT22;9645;51.448;6.260;2023-04-06T14:54:40;9.60;99.90
19025;DHT22;9645;51.448;6.260;2023-04-06T14:57:07;9.50;99.90
19025;DHT22;9645;51.448;6.260;2023-04-06T14:59:35;9.50;99.90
19025;DHT22;9645;51.448;6.260;2023-04-06T15:02:02;9.30;99.90
19025;DHT22;9645;51.448;6.260;2023-04-06T15:04:29;9.20;99.90
19025;DHT22;9645;51.448;6.260;2023-04-06T15:06:56;9.20;99.90
19025;DHT22;9645;51.448;6.260;2023-04-06T15:09:23;9.20;99.90
19025;DHT22;9645;51.448;6.260;2023-04-06T15:11:50;9.20;99.90
19025;DHT22;9645;51.448;6.260;2023-04-06T15:14:17;9.20;99.90
19025;DHT22;9645;51.448;6.260;2023-04-06T15:16:45;9.10;99.90
19025;DHT22;9645;51.448;6.260;2023-04-06T15:19:12;9.10;99.90
19025;DHT22;9645;51.448;6.260;2023-04-06T15:21:39;9.10;99.90
19025;DHT22;9645;51.448;6.260;2023-04-06T15:24:07;9.10;99.90
19025;DHT22;9645;51.448;6.260;2023-04-06T15:26:35;9.10;99.90
19025;DHT22;9645;51.448;6.260;2023-04-06T15:29:02;9.10;99.90
19025;DHT22;9645;51.448;6.260;2023-04-06T15:31:29;9.10;99.90
19025;DHT22;9645;51.448;6.260;2023-04-06T15:33:58;9.20;99.90
19025;DHT22;9645;51.448;6.260;2023-04-06T15:36:27;9.20;99.90
19025;DHT22;9645;51.448;6.260;2023-04-06T15:38:55;9.10;99.90
19025;DHT22;9645;51.448;6.260;2023-04-06T15:41:22;9.20;99.90
19025;DHT22;9645;51.448;6.260;2023-04-06T15:43:51;9.20;99.90
19025;DHT22;9645;51.448;6.260;2023-04-06T15:46:18;9.10;99.90
19025;DHT22;9645;51.448;6.260;2023-04-06T15:48:45;9.10;99.90
19025;DHT22;9645;51.448;6.260;2023-04-06T15:51:14;9.10;99.90
19025;DHT22;9645;51.448;6.260;2023-04-06T15:53:42;9.00;99.90
19025;DHT22;9645;51.448;6.260;2023-04-06T15:56:09;9.00;99.90
19025;DHT22;9645;51.448;6.260;2023-04-06T15:58:36;9.00;99.90
19025;DHT22;9645;51.448;6.260;2023-04-06T16:01:11;9.00;99.90
19025;DHT22;9645;51.448;6.260;2023-04-06T16:03:38;9.00;99.90